Time;durP1;ratioP1;P1;durP2;ratioP2;P2;SDS_P1;SDS_P2;PMS_P1;PMS_P2;Temp;Humidity;BMP_temperature;BMP_pressure;BME280_temperature;BME280_humidity;BME280_pressure;Samples;Min_cycle;Max_cycle;Signal;HPM_P1;HPM_P2
2022/07/14 00:01:24;;;;;;;1.33;0.70;;;24.30;87.20;;;;;;4984526;28;20081;-85
2022/07/14 00:03:49;;;;;;;1.50;0.98;;;24.30;87.30;;;;;;4987539;28;20019;-85
2022/07/14 00:06:16;;;;;;;1.05;0.73;;;24.30;87.30;;;;;;4968233;28;20027;-85
2022/07/14 00:08:43;;;;;;;2.08;0.73;;;24.30;87.40;;;;;;4982487;28;20026;-85
2022/07/14 00:11:09;;;;;;;3.60;0.80;;;24.30;87.40;;;;;;4975386;28;20026;-84
2022/07/14 00:13:35;;;;;;;4.53;1.40;;;24.30;87.40;;;;;;4976578;28;20019;-85
2022/07/14 00:16:01;;;;;;;1.75;0.63;;;24.30;87.40;;;;;;4962779;28;20030;-85
2022/07/14 00:18:27;;;;;;;3.95;0.80;;;24.30;87.40;;;;;;4983398;28;20545;-83
2022/07/14 00:20:53;;;;;;;1.63;0.85;;;24.30;87.40;;;;;;4957898;28;20126;-85
2022/07/14 00:23:21;;;;;;;3.33;0.70;;;24.30;87.40;;;;;;4975820;28;20079;-85
2022/07/14 00:25:46;;;;;;;6.05;0.80;;;24.30;87.40;;;;;;4977082;28;20026;-85
2022/07/14 00:28:12;;;;;;;1.67;0.95;;;24.20;87.30;;;;;;4974514;28;20501;-85
2022/07/14 00:30:38;;;;;;;1.80;0.68;;;24.30;87.40;;;;;;4961284;28;20512;-85
2022/07/14 00:33:03;;;;;;;1.50;0.98;;;24.20;87.30;;;;;;4975604;28;20564;-84
2022/07/14 00:35:29;;;;;;;3.78;0.80;;;24.20;87.60;;;;;;4988964;28;20092;-84
2022/07/14 00:37:55;;;;;;;2.40;0.88;;;24.20;87.30;;;;;;4968985;28;20035;-84
2022/07/14 00:40:20;;;;;;;3.47;0.70;;;24.20;87.30;;;;;;4969619;28;20023;-84
2022/07/14 00:42:50;;;;;;;4.95;0.80;;;24.20;87.30;;;;;;4986610;28;20090;-85
2022/07/14 00:45:18;;;;;;;3.08;0.70;;;24.20;87.00;;;;;;4969600;28;20034;-85
2022/07/14 00:47:46;;;;;;;1.58;0.80;;;24.20;86.90;;;;;;4964776;28;20101;-84
2022/07/14 00:50:13;;;;;;;4.38;0.80;;;24.20;86.90;;;;;;4964318;28;20512;-85
2022/07/14 00:52:41;;;;;;;2.22;0.75;;;24.20;86.80;;;;;;4959903;28;20026;-85
2022/07/14 00:55:08;;;;;;;3.60;0.80;;;24.20;86.80;;;;;;4958401;28;20100;-84
2022/07/14 00:57:35;;;;;;;1.42;0.60;;;24.20;86.70;;;;;;4968435;28;20058;-84
2022/07/14 01:00:01;;;;;;;2.13;0.63;;;24.20;86.60;;;;;;4975285;28;20082;-85
2022/07/14 01:02:27;;;;;;;1.67;0.70;;;24.20;86.60;;;;;;4983981;28;20423;-85
2022/07/14 01:04:53;;;;;;;1.08;0.70;;;24.20;86.70;;;;;;4975632;28;20077;-84
2022/07/14 01:07:19;;;;;;;1.15;0.68;;;24.10;86.60;;;;;;4974213;28;20027;-84
2022/07/14 01:09:45;;;;;;;4.05;0.80;;;24.10;86.70;;;;;;4977514;28;20075;-84
2022/07/14 01:12:11;;;;;;;2.58;0.52;;;24.10;86.60;;;;;;4967108;28;20072;-85
2022/07/14 01:14:38;;;;;;;1.27;0.68;;;24.10;86.70;;;;;;4956842;28;20035;-85
2022/07/14 01:17:06;;;;;;;1.55;0.80;;;24.10;86.70;;;;;;4981126;28;20042;-85
2022/07/14 01:19:32;;;;;;;1.50;0.82;;;24.10;86.70;;;;;;4957753;28;20157;-84
2022/07/14 01:21:58;;;;;;;1.73;0.70;;;24.10;86.70;;;;;;4984851;28;20515;-84
2022/07/14 01:24:25;;;;;;;1.05;0.57;;;24.10;86.60;;;;;;4964668;28;20122;-84
2022/07/14 01:26:51;;;;;;;1.35;0.60;;;24.10;86.60;;;;;;4957157;28;20031;-84
2022/07/14 01:29:18;;;;;;;2.78;0.70;;;24.00;86.40;;;;;;4963247;28;20027;-85
2022/07/14 01:31:44;;;;;;;1.30;0.70;;;24.10;86.30;;;;;;4974478;28;20047;-84
2022/07/14 01:34:10;;;;;;;1.95;0.70;;;24.00;86.10;;;;;;4977819;28;20139;-85
2022/07/14 01:36:36;;;;;;;2.22;0.52;;;24.00;86.10;;;;;;4980680;28;20458;-84
2022/07/14 01:39:04;;;;;;;3.83;0.55;;;24.00;86.10;;;;;;4975601;28;20060;-84
2022/07/14 01:41:30;;;;;;;3.33;0.70;;;24.00;86.00;;;;;;4970401;28;20390;-84
2022/07/14 01:43:56;;;;;;;2.85;0.90;;;24.00;86.00;;;;;;4960039;28;20085;-85
2022/07/14 01:46:21;;;;;;;3.13;0.60;;;24.00;86.00;;;;;;4974285;28;20557;-84
2022/07/14 01:48:47;;;;;;;0.90;0.50;;;24.00;85.80;;;;;;4957409;28;20058;-84
2022/07/14 01:51:13;;;;;;;2.80;0.88;;;24.00;85.80;;;;;;4956421;28;20038;-84
2022/07/14 01:53:41;;;;;;;1.10;0.60;;;24.00;85.80;;;;;;4956278;28;20023;-85
2022/07/14 01:56:11;;;;;;;2.60;0.70;;;24.00;85.80;;;;;;4974527;28;20066;-83
2022/07/14 01:58:37;;;;;;;2.35;0.77;;;24.00;85.80;;;;;;4980850;28;20031;-84
2022/07/14 02:03:47;;;;;;;;;;;23.90;85.90;;;;;;4984308;28;20065;-84
2022/07/14 02:06:13;;;;;;;1.27;0.80;;;23.90;85.80;;;;;;4987226;28;19941;-83
2022/07/14 02:08:39;;;;;;;3.42;0.80;;;23.90;85.70;;;;;;4983354;28;20508;-84
2022/07/14 02:13:49;;;;;;;1.50;0.73;;;23.90;85.70;;;;;;4977727;28;20041;-84
2022/07/14 02:16:15;;;;;;;0.93;0.70;;;23.80;85.40;;;;;;4977360;28;20027;-84
2022/07/14 02:18:41;;;;;;;3.72;0.70;;;23.80;85.30;;;;;;4993988;28;20030;-84
2022/07/14 02:21:07;;;;;;;1.13;0.70;;;23.80;85.30;;;;;;4961309;28;20030;-84
2022/07/14 02:23:33;;;;;;;1.60;0.80;;;23.80;85.30;;;;;;4986754;28;20043;-84
2022/07/14 02:25:59;;;;;;;1.25;0.88;;;23.80;85.30;;;;;;4977015;28;20059;-84
2022/07/14 02:28:25;;;;;;;2.05;0.73;;;23.80;85.30;;;;;;4981413;28;20058;-84
2022/07/14 02:30:51;;;;;;;1.00;0.60;;;23.80;85.30;;;;;;4981454;28;20170;-84
2022/07/14 02:33:17;;;;;;;3.35;0.80;;;23.80;85.30;;;;;;4969856;28;20057;-84
2022/07/14 02:35:43;;;;;;;1.83;0.90;;;23.80;85.30;;;;;;4963649;28;20071;-84
2022/07/14 02:38:08;;;;;;;4.80;0.80;;;23.80;85.30;;;;;;4977887;28;20133;-84
2022/07/14 02:40:34;;;;;;;2.20;1.02;;;23.80;85.30;;;;;;4966428;28;20038;-84
2022/07/14 02:43:01;;;;;;;1.40;0.57;;;23.80;85.10;;;;;;4973986;28;20038;-84
2022/07/14 02:45:26;;;;;;;1.80;0.70;;;23.70;85.10;;;;;;4982652;28;20018;-84
2022/07/14 02:47:52;;;;;;;1.08;0.60;;;23.70;85.20;;;;;;4978287;28;20039;-84
2022/07/14 02:50:18;;;;;;;1.38;0.60;;;23.70;85.00;;;;;;4959210;28;20466;-84
2022/07/14 02:52:43;;;;;;;1.42;0.60;;;23.70;85.10;;;;;;4980333;28;20030;-84
2022/07/14 02:55:09;;;;;;;3.38;0.75;;;23.70;85.00;;;;;;4975913;28;20086;-84
2022/07/14 02:57:35;;;;;;;1.98;0.80;;;23.60;84.90;;;;;;4989725;28;20078;-84
2022/07/14 03:00:00;;;;;;;0.68;0.50;;;23.70;85.00;;;;;;4989249;28;20066;-84
2022/07/14 03:02:26;;;;;;;2.80;0.70;;;23.70;85.00;;;;;;4979538;28;20058;-84
2022/07/14 03:04:52;;;;;;;0.98;0.65;;;23.60;84.90;;;;;;4964396;28;20482;-84
2022/07/14 03:07:18;;;;;;;1.35;0.80;;;23.60;84.90;;;;;;4971516;28;20023;-83
2022/07/14 03:09:44;;;;;;;1.45;0.70;;;23.60;84.80;;;;;;4959478;28;20121;-84
2022/07/14 03:12:09;;;;;;;1.95;0.80;;;23.60;84.90;;;;;;4979615;28;20082;-84
2022/07/14 03:14:35;;;;;;;0.90;0.68;;;23.60;84.80;;;;;;4985438;28;20041;-83
2022/07/14 03:17:01;;;;;;;1.88;0.73;;;23.60;84.70;;;;;;4958481;28;20077;-84
2022/07/14 03:19:26;;;;;;;2.28;0.68;;;23.60;84.70;;;;;;4958635;28;20470;-84
2022/07/14 03:21:53;;;;;;;3.03;0.70;;;23.60;84.70;;;;;;4982956;28;20034;-84
2022/07/14 03:24:20;;;;;;;1.75;0.68;;;23.60;84.60;;;;;;4970717;28;20146;-84
2022/07/14 03:26:46;;;;;;;1.40;0.73;;;23.50;84.50;;;;;;4981781;28;20030;-84
2022/07/14 03:29:12;;;;;;;2.47;0.60;;;23.60;84.60;;;;;;4977417;28;20032;-84
2022/07/14 03:31:38;;;;;;;2.10;0.70;;;23.60;84.70;;;;;;4991920;28;20030;-84
2022/07/14 03:34:04;;;;;;;1.98;0.75;;;23.50;84.70;;;;;;4978145;28;20030;-84
2022/07/14 03:36:30;;;;;;;4.50;0.80;;;23.50;84.70;;;;;;4976127;28;20043;-85
2022/07/14 03:38:56;;;;;;;1.88;0.80;;;23.50;84.40;;;;;;4966202;28;20026;-84
2022/07/14 03:41:21;;;;;;;3.15;0.65;;;23.50;84.40;;;;;;4979541;28;20031;-84
2022/07/14 03:43:47;;;;;;;1.73;0.70;;;23.50;84.30;;;;;;4975417;28;20023;-84
2022/07/14 03:46:13;;;;;;;1.40;0.75;;;23.50;84.40;;;;;;4972836;28;20040;-84
2022/07/14 03:48:39;;;;;;;1.98;0.73;;;23.50;85.20;;;;;;4957796;28;20049;-83
2022/07/14 03:51:05;;;;;;;2.97;0.70;;;23.50;84.40;;;;;;4985654;28;20470;-84
2022/07/14 03:53:32;;;;;;;4.20;0.77;;;23.40;84.40;;;;;;4961113;28;20151;-85
2022/07/14 03:55:58;;;;;;;1.55;0.82;;;23.50;84.40;;;;;;4967450;28;20402;-84
2022/07/14 03:58:24;;;;;;;2.67;0.50;;;23.40;84.40;;;;;;4975213;28;20027;-84
2022/07/14 04:00:51;;;;;;;3.15;0.70;;;23.40;84.40;;;;;;4977242;28;20512;-84
2022/07/14 04:03:16;;;;;;;1.83;0.88;;;23.40;84.40;;;;;;4986290;28;20544;-84
2022/07/14 04:05:43;;;;;;;2.47;0.80;;;23.40;84.40;;;;;;4973653;28;20154;-84
2022/07/14 04:08:09;;;;;;;1.77;0.50;;;23.40;84.40;;;;;;4980822;28;20030;-84
2022/07/14 04:10:35;;;;;;;1.33;0.70;;;23.40;84.40;;;;;;4967525;28;20030;-84
2022/07/14 04:13:01;;;;;;;2.03;0.80;;;23.40;84.40;;;;;;4969946;28;20504;-84
2022/07/14 04:15:28;;;;;;;1.58;0.70;;;23.40;84.30;;;;;;4983368;28;20031;-84
2022/07/14 04:17:55;;;;;;;2.65;0.70;;;23.40;84.30;;;;;;4957827;28;20035;-84
2022/07/14 04:20:21;;;;;;;2.45;0.68;;;23.40;84.30;;;;;;4966919;28;20034;-84
2022/07/14 04:22:48;;;;;;;3.08;0.70;;;23.40;84.40;;;;;;4985908;28;20546;-84
2022/07/14 04:25:13;;;;;;;2.85;0.70;;;23.40;84.30;;;;;;4958105;28;20041;-84
2022/07/14 04:27:40;;;;;;;2.15;0.68;;;23.40;84.30;;;;;;4957532;28;20486;-84
2022/07/14 04:30:07;;;;;;;3.05;0.70;;;23.40;84.40;;;;;;4975706;28;20037;-84
2022/07/14 04:32:33;;;;;;;7.20;1.00;;;23.40;84.30;;;;;;4965459;28;20039;-84
2022/07/14 04:34:59;;;;;;;1.10;0.90;;;23.40;84.30;;;;;;4975534;28;20125;-84
2022/07/14 04:37:26;;;;;;;2.63;0.65;;;23.40;84.30;;;;;;4968198;28;20027;-84
2022/07/14 04:39:53;;;;;;;1.88;0.85;;;23.40;84.40;;;;;;4984174;28;20494;-84
2022/07/14 04:42:19;;;;;;;1.38;0.60;;;23.40;84.30;;;;;;4991087;28;20088;-84
2022/07/14 04:44:45;;;;;;;1.67;0.70;;;23.40;84.40;;;;;;4960191;28;20121;-84
2022/07/14 04:47:11;;;;;;;1.98;0.80;;;23.30;84.30;;;;;;4977506;28;20023;-84
2022/07/14 04:52:21;;;;;;;3.53;0.75;;;23.30;84.50;;;;;;4975720;28;20211;-84
2022/07/14 04:54:47;;;;;;;1.80;0.90;;;23.30;84.40;;;;;;4992573;28;20035;-84
2022/07/14 04:57:12;;;;;;;1.45;0.63;;;23.30;84.50;;;;;;4981317;28;20061;-84
2022/07/14 04:59:38;;;;;;;2.15;0.70;;;23.30;84.50;;;;;;4988661;28;20026;-84
2022/07/14 05:02:04;;;;;;;1.65;0.70;;;23.30;84.60;;;;;;4968044;28;20120;-84
2022/07/14 05:04:30;;;;;;;1.45;0.80;;;23.30;84.60;;;;;;4971419;28;20085;-84
2022/07/14 05:06:57;;;;;;;3.83;0.80;;;23.30;84.60;;;;;;4964721;28;20189;-84
2022/07/14 05:09:25;;;;;;;2.55;0.60;;;23.30;84.60;;;;;;4964273;28;20027;-84
2022/07/14 05:11:54;;;;;;;1.67;1.00;;;23.30;85.40;;;;;;4982915;28;20027;-84
2022/07/14 05:14:20;;;;;;;1.77;0.85;;;23.30;84.70;;;;;;4980001;28;20418;-84
2022/07/14 05:16:47;;;;;;;1.38;0.75;;;23.30;84.70;;;;;;4986698;28;20029;-84
2022/07/14 05:19:13;;;;;;;6.45;0.85;;;23.30;84.80;;;;;;4962960;28;20031;-84
2022/07/14 05:21:39;;;;;;;1.50;0.73;;;23.30;85.00;;;;;;4978282;28;20602;-84
2022/07/14 05:24:05;;;;;;;1.98;0.80;;;23.30;85.00;;;;;;4982747;28;20054;-84
2022/07/14 05:26:30;;;;;;;7.18;0.65;;;23.30;85.20;;;;;;4978234;28;20042;-84
2022/07/14 05:28:56;;;;;;;1.27;0.95;;;23.30;85.10;;;;;;4978924;28;20058;-84
2022/07/14 05:31:21;;;;;;;1.15;0.80;;;23.30;85.30;;;;;;4980871;28;20034;-84
2022/07/14 05:33:48;;;;;;;1.80;0.73;;;23.30;85.30;;;;;;4981744;28;20054;-84
2022/07/14 05:36:14;;;;;;;1.92;0.80;;;23.30;85.40;;;;;;4984197;28;20375;-84
2022/07/14 05:38:40;;;;;;;4.88;0.70;;;23.30;85.60;;;;;;4980903;28;20050;-84
2022/07/14 05:41:06;;;;;;;1.05;0.80;;;23.30;85.70;;;;;;4996040;28;20065;-84
2022/07/14 05:43:32;;;;;;;2.10;0.90;;;23.30;85.90;;;;;;4969892;28;20030;-84
2022/07/14 05:46:05;;;;;;;2.53;0.80;;;23.30;86.00;;;;;;4968660;28;20113;-84
2022/07/14 05:48:31;;;;;;;0.93;0.60;;;23.30;86.30;;;;;;4959838;28;20026;-84
2022/07/14 05:51:10;;;;;;;3.38;0.82;;;23.30;86.20;;;;;;4983947;28;20094;-84
2022/07/14 05:53:36;;;;;;;1.23;0.55;;;23.30;86.20;;;;;;4963347;28;20054;-87
2022/07/14 05:56:04;;;;;;;7.25;0.80;;;23.30;86.30;;;;;;4960179;28;20473;-84
2022/07/14 05:58:30;;;;;;;5.07;1.15;;;22.90;89.00;;;;;;4959910;28;20026;-86
2022/07/14 06:00:55;;;;;;;4.10;0.88;;;22.60;89.70;;;;;;4974574;28;20593;-86
2022/07/14 06:03:21;;;;;;;4.55;1.00;;;22.60;90.00;;;;;;4987160;28;20062;-85
2022/07/14 06:05:47;;;;;;;4.43;0.80;;;22.60;90.00;;;;;;4959709;28;20033;-86
2022/07/14 06:08:12;;;;;;;3.17;1.20;;;22.70;90.00;;;;;;4959670;28;20027;-86
2022/07/14 06:10:38;;;;;;;5.55;0.70;;;22.80;89.70;;;;;;4961975;28;20084;-86
2022/07/14 06:13:04;;;;;;;2.28;0.80;;;22.80;89.50;;;;;;4979821;28;20497;-86
2022/07/14 06:15:30;;;;;;;0.95;0.70;;;22.90;89.30;;;;;;4959962;28;20113;-86
2022/07/14 06:17:56;;;;;;;4.25;1.00;;;23.00;89.10;;;;;;4980561;28;20030;-86
2022/07/14 06:20:22;;;;;;;1.30;0.60;;;23.00;89.00;;;;;;4979097;28;20023;-86
2022/07/14 06:22:49;;;;;;;1.75;0.80;;;23.10;89.20;;;;;;4980053;28;20039;-86
2022/07/14 06:25:15;;;;;;;2.85;1.00;;;23.10;89.10;;;;;;4987059;28;20042;-86
2022/07/14 06:27:42;;;;;;;2.83;0.70;;;23.20;89.00;;;;;;4981661;28;20056;-86
2022/07/14 06:30:09;;;;;;;5.03;0.90;;;23.20;89.00;;;;;;4960930;28;20379;-86
2022/07/14 06:32:39;;;;;;;3.15;0.80;;;23.20;89.00;;;;;;4978183;28;20039;-85
2022/07/14 06:35:05;;;;;;;2.47;0.90;;;23.20;89.00;;;;;;4961216;28;20039;-86
2022/07/14 06:37:31;;;;;;;1.55;0.60;;;23.20;88.90;;;;;;4977345;28;20079;-86
2022/07/14 06:39:57;;;;;;;1.83;0.88;;;23.20;88.90;;;;;;4970438;28;20470;-86
2022/07/14 06:45:13;;;;;;;2.22;0.80;;;23.30;89.10;;;;;;5946655;23;21120;-83
2022/07/14 06:47:38;;;;;;;1.42;0.80;;;23.30;89.10;;;;;;4939030;23;20111;-77
2022/07/14 06:50:05;;;;;;;4.85;0.73;;;23.30;89.10;;;;;;4934593;29;20031;-78
2022/07/14 06:52:31;;;;;;;5.10;0.80;;;23.30;89.30;;;;;;4930523;29;20024;-77
2022/07/14 06:55:03;;;;;;;5.68;0.90;;;23.30;89.60;;;;;;4930523;29;20086;-77
2022/07/14 06:57:28;;;;;;;1.50;0.60;;;23.40;89.30;;;;;;4927861;29;20055;-77
2022/07/14 06:59:54;;;;;;;2.05;0.70;;;23.40;89.40;;;;;;4914267;29;20391;-78
2022/07/14 07:02:48;;;;;;;6.68;0.82;;;23.40;89.60;;;;;;4816550;29;20391;-79
2022/07/14 07:08:00;;;;;;;1.65;0.70;;;23.40;89.50;;;;;;4931769;29;20136;-78
2022/07/14 07:10:27;;;;;;;5.68;0.82;;;23.40;89.40;;;;;;4936455;29;20035;-78
2022/07/14 07:12:53;;;;;;;1.80;0.80;;;23.40;89.50;;;;;;4932341;29;20032;-78
2022/07/14 07:15:19;;;;;;;1.67;0.70;;;23.50;89.00;;;;;;4935019;29;20035;-77
2022/07/14 07:17:45;;;;;;;1.33;0.70;;;23.50;88.70;;;;;;4932722;29;20043;-78
2022/07/14 07:20:10;;;;;;;1.20;0.65;;;23.50;88.60;;;;;;4936458;29;20028;-78
2022/07/14 07:22:37;;;;;;;2.08;0.70;;;23.60;88.60;;;;;;4941521;29;20551;-77
2022/07/14 07:25:04;;;;;;;2.88;0.70;;;23.60;88.50;;;;;;4934374;29;20084;-78
2022/07/14 07:27:31;;;;;;;1.40;0.90;;;23.60;88.50;;;;;;4933049;29;20027;-79
2022/07/14 07:30:00;;;;;;;2.53;0.75;;;23.60;88.40;;;;;;4935044;29;20123;-79
2022/07/14 07:32:27;;;;;;;2.78;0.70;;;23.70;88.40;;;;;;4936747;29;20406;-78
2022/07/14 07:34:53;;;;;;;1.58;0.70;;;23.70;88.30;;;;;;4939429;29;20032;-79
2022/07/14 07:37:18;;;;;;;1.05;0.60;;;23.70;88.20;;;;;;4929286;29;20040;-78
2022/07/14 07:39:44;;;;;;;2.78;0.50;;;23.70;88.20;;;;;;4933585;29;20023;-79
2022/07/14 07:42:10;;;;;;;1.85;0.77;;;23.70;88.20;;;;;;4926989;29;20092;-78
2022/07/14 07:44:36;;;;;;;3.10;0.68;;;23.70;88.20;;;;;;4936821;29;20035;-76
2022/07/14 07:47:03;;;;;;;0.88;0.65;;;23.80;88.10;;;;;;4946360;29;20045;-78
2022/07/14 07:49:29;;;;;;;2.90;0.70;;;23.80;88.20;;;;;;4933166;29;20027;-79
2022/07/14 07:52:00;;;;;;;1.40;0.80;;;23.80;88.10;;;;;;4952046;29;20031;-79
2022/07/14 07:54:27;;;;;;;1.33;0.60;;;23.80;88.10;;;;;;4953070;29;20027;-79
2022/07/14 07:56:54;;;;;;;3.03;0.70;;;23.90;88.10;;;;;;4953811;29;20115;-79
2022/07/14 07:59:20;;;;;;;0.80;0.60;;;23.90;88.10;;;;;;4928338;29;20027;-79
2022/07/14 08:01:46;;;;;;;1.38;0.80;;;23.90;88.00;;;;;;4951861;29;20043;-80
2022/07/14 08:04:14;;;;;;;1.25;0.73;;;23.90;87.90;;;;;;4956874;28;20386;-79
2022/07/14 08:06:40;;;;;;;1.92;0.70;;;24.00;87.90;;;;;;4955181;29;20028;-79
2022/07/14 08:09:10;;;;;;;4.43;0.63;;;24.00;87.90;;;;;;4952504;29;20039;-79
2022/07/14 08:11:36;;;;;;;1.02;0.60;;;24.00;87.80;;;;;;4931449;29;20494;-79
2022/07/14 08:14:02;;;;;;;0.90;0.70;;;24.00;87.60;;;;;;4924831;29;20055;-81
2022/07/14 08:16:27;;;;;;;3.08;0.80;;;24.00;87.50;;;;;;4926020;29;20403;-80
2022/07/14 08:18:53;;;;;;;1.25;0.77;;;24.10;87.40;;;;;;4932920;29;20031;-79
2022/07/14 08:21:19;;;;;;;4.05;0.70;;;24.10;87.30;;;;;;4952381;28;20482;-80
2022/07/14 08:36:38;;;;;;;3.75;0.80;;;24.70;81.50;;;;;;6160671;22;1461546;-88
2022/07/14 08:39:05;;;;;;;1.38;0.70;;;26.10;77.30;;;;;;6132933;23;20061;-84
2022/07/14 09:12:36;;;;;;;3.22;0.95;;;25.90;77.50;;;;;;6193987;23;20456;-89
2022/07/14 09:17:54;;;;;;;2.03;1.00;;;25.90;77.70;;;;;;6193876;23;20016;-89
2022/07/14 09:20:21;;;;;;;3.60;0.98;;;25.90;77.60;;;;;;6192627;23;20005;-90
2022/07/14 09:22:47;;;;;;;2.35;1.05;;;25.90;77.60;;;;;;6192837;23;20059;-88
2022/07/14 09:25:18;;;;;;;3.63;1.10;;;25.90;77.80;;;;;;6191881;23;20071;-90
2022/07/14 09:27:47;;;;;;;0.75;0.73;;;25.90;77.90;;;;;;6193290;23;20484;-91
2022/07/14 09:30:16;;;;;;;1.33;0.90;;;25.90;78.00;;;;;;6192567;23;20088;-89
2022/07/14 09:32:58;;;;;;;1.15;0.80;;;25.90;78.00;;;;;;6192350;23;20005;-88
2022/07/14 09:35:25;;;;;;;2.08;0.77;;;25.90;77.80;;;;;;6191021;23;20001;-89
2022/07/14 09:37:52;;;;;;;0.90;0.75;;;25.90;77.80;;;;;;6185205;23;20437;-88
2022/07/14 09:40:33;;;;;;;1.27;0.70;;;25.90;77.60;;;;;;6185704;23;20005;-89
2022/07/14 09:43:04;;;;;;;0.98;0.70;;;25.90;77.60;;;;;;6185616;23;20015;-89
2022/07/14 09:45:33;;;;;;;1.48;0.85;;;25.90;77.40;;;;;;6185164;23;20008;-89
2022/07/14 09:48:03;;;;;;;1.55;0.80;;;25.90;76.80;;;;;;6185191;23;20080;-88
2022/07/14 09:50:49;;;;;;;2.53;0.70;;;25.90;76.90;;;;;;6185434;23;20487;-90
2022/07/14 09:53:21;;;;;;;1.83;0.80;;;26.00;76.70;;;;;;6185522;23;20432;-88
2022/07/14 09:56:00;;;;;;;1.35;0.85;;;25.90;76.80;;;;;;6185123;23;20005;-91
2022/07/14 09:58:29;;;;;;;0.80;0.70;;;26.00;76.60;;;;;;6185525;23;20005;-90
2022/07/14 10:01:03;;;;;;;1.30;0.80;;;25.90;76.50;;;;;;6185491;23;20012;-89
2022/07/14 10:03:32;;;;;;;1.80;0.70;;;25.90;76.50;;;;;;6185785;23;20491;-88
2022/07/14 10:05:59;;;;;;;0.90;0.63;;;25.90;76.60;;;;;;6185431;23;20393;-89
2022/07/14 10:08:30;;;;;;;3.45;0.80;;;25.90;76.30;;;;;;6185267;23;20001;-90
2022/07/14 10:10:59;;;;;;;1.15;0.80;;;25.90;76.30;;;;;;6185641;23;19997;-88
2022/07/14 10:13:27;;;;;;;1.20;0.80;;;25.90;76.40;;;;;;6184821;23;20020;-90
2022/07/14 10:15:54;;;;;;;1.63;0.70;;;26.00;76.30;;;;;;6184752;23;20356;-89
2022/07/14 10:18:21;;;;;;;2.03;0.80;;;26.00;76.00;;;;;;6186232;23;20051;-91
2022/07/14 10:20:55;;;;;;;2.08;0.70;;;26.00;75.70;;;;;;6184499;23;20009;-90
2022/07/14 10:23:22;;;;;;;1.13;0.80;;;26.00;75.60;;;;;;6185294;23;20320;-91
2022/07/14 10:25:50;;;;;;;1.98;0.98;;;26.10;75.60;;;;;;6185022;23;20425;-92
2022/07/14 10:28:18;;;;;;;4.78;0.82;;;26.10;75.60;;;;;;6184979;23;20009;-91
2022/07/14 10:30:59;;;;;;;1.10;0.70;;;26.10;75.50;;;;;;6185288;23;20005;-91
2022/07/14 10:33:43;;;;;;;2.28;0.73;;;26.10;75.50;;;;;;6184547;23;20381;-90
2022/07/14 10:36:11;;;;;;;1.50;0.80;;;26.10;75.40;;;;;;6184848;23;20368;-91
2022/07/14 10:38:40;;;;;;;2.13;0.88;;;26.10;75.20;;;;;;6184826;23;20059;-91
2022/07/14 10:41:15;;;;;;;2.03;0.85;;;26.10;75.40;;;;;;6185308;23;20028;-91
2022/07/14 10:44:09;;;;;;;1.10;0.80;;;26.10;75.50;;;;;;6185663;23;20083;-91
2022/07/14 10:46:42;;;;;;;1.20;0.80;;;26.10;75.40;;;;;;6184900;23;20009;-91
2022/07/14 10:49:09;;;;;;;0.98;0.65;;;26.10;75.40;;;;;;6184824;23;20088;-91
2022/07/14 10:51:53;;;;;;;3.53;1.00;;;26.10;75.50;;;;;;6185080;23;19994;-91
2022/07/14 10:54:28;;;;;;;1.25;1.02;;;26.20;75.50;;;;;;6184691;23;20005;-91
2022/07/14 10:57:16;;;;;;;1.63;0.90;;;26.20;75.50;;;;;;6185073;23;20452;-91
2022/07/14 10:59:44;;;;;;;1.20;0.90;;;26.20;75.40;;;;;;6185237;23;20008;-90
2022/07/14 11:02:15;;;;;;;1.00;0.60;;;26.20;75.30;;;;;;6185114;23;20001;-91
2022/07/14 11:05:07;;;;;;;2.78;1.10;;;26.20;75.20;;;;;;6185055;23;20096;-91
2022/07/14 11:07:52;;;;;;;4.18;1.05;;;26.20;75.20;;;;;;6185187;23;20020;-91
2022/07/14 11:10:24;;;;;;;1.63;0.90;;;26.20;75.00;;;;;;6184577;23;20005;-91
2022/07/14 11:12:59;;;;;;;1.70;0.90;;;26.30;75.30;;;;;;6184301;23;20071;-89
2022/07/14 11:15:45;;;;;;;2.28;0.82;;;26.30;75.20;;;;;;6185000;23;20433;-90
2022/07/14 11:18:35;;;;;;;2.03;0.90;;;26.30;75.90;;;;;;6184208;23;20079;-90
2022/07/14 11:21:07;;;;;;;1.77;0.90;;;26.30;74.90;;;;;;6163487;23;20009;-91
2022/07/14 11:23:36;;;;;;;1.92;0.80;;;26.30;74.60;;;;;;6185105;23;20453;-90
2022/07/14 11:26:06;;;;;;;2.03;0.90;;;26.30;74.60;;;;;;6184911;23;20009;-90
2022/07/14 11:28:49;;;;;;;1.65;1.00;;;26.30;74.50;;;;;;6185297;23;20052;-89
2022/07/14 11:31:18;;;;;;;1.58;0.95;;;26.30;74.50;;;;;;6184911;23;20075;-90
2022/07/14 11:36:35;;;;;;;1.70;0.85;;;26.40;74.20;;;;;;6185700;23;20008;-89
2022/07/14 11:39:36;;;;;;;2.55;1.20;;;26.40;74.10;;;;;;6184915;23;20001;-92
2022/07/14 11:42:18;;;;;;;4.65;0.88;;;26.50;72.00;;;;;;6160035;23;20008;-92
2022/07/14 11:44:54;;;;;;;3.08;0.80;;;27.10;68.00;;;;;;6160182;23;20389;-93
2022/07/14 11:47:26;;;;;;;1.95;1.00;;;27.30;68.00;;;;;;6184878;23;20001;-94
2022/07/14 11:49:56;;;;;;;3.80;0.80;;;27.30;68.50;;;;;;6185517;23;20005;-93
2022/07/14 11:52:28;;;;;;;5.07;0.80;;;27.20;69.30;;;;;;6185292;23;20005;-93
2022/07/14 11:54:59;;;;;;;1.83;0.90;;;27.00;69.80;;;;;;6185134;23;20005;-92
2022/07/14 11:57:39;;;;;;;3.03;0.90;;;26.90;70.20;;;;;;6184225;23;20009;-94
2022/07/14 12:00:16;;;;;;;2.70;0.98;;;26.80;70.60;;;;;;6184193;23;20121;-91
2022/07/14 12:06:16;;;;;;;;;;;;;;;;;;;;;
2022/07/14 12:09:35;;;;;;;3.88;1.10;;;26.60;71.60;;;;;;6186199;23;19988;-93
2022/07/14 12:12:20;;;;;;;2.35;0.70;;;26.60;72.00;;;;;;6185817;23;20485;-92
2022/07/14 12:15:09;;;;;;;5.25;0.90;;;26.60;72.00;;;;;;6185833;23;20024;-92
2022/07/14 12:18:28;;;;;;;3.55;0.90;;;26.60;72.10;;;;;;6184582;23;20008;-92
2022/07/14 12:21:49;;;;;;;1.30;0.98;;;26.60;72.20;;;;;;6185229;23;20464;-94
2022/07/14 12:25:31;;;;;;;;;;;;;;;;;;;;;
2022/07/14 12:32:08;;;;;;;;;;;;;;;;;;;;;
2022/07/14 12:34:43;;;;;;;2.45;0.82;;;26.40;72.70;;;;;;6024285;23;20101;-92
2022/07/14 12:38:15;;;;;;;2.10;0.90;;;26.40;72.80;;;;;;6042729;23;20320;-94
2022/07/14 12:56:24;;;;;;;;;;;;;;;;;;;;;
2022/07/14 12:59:06;;;;;;;;;;;;;;;;;;;;;
2022/07/14 13:01:59;;;;;;;0.60;0.50;;;26.30;73.80;;;;;;6004000;23;20483;-93
2022/07/14 13:05:17;;;;;;;;;;;;;;;;;;;;;
2022/07/14 13:11:55;;;;;;;1.35;0.70;;;26.20;74.10;;;;;;5983660;24;20027;-94
2022/07/14 13:15:23;;;;;;;;;;;;;;;;;;;;;
2022/07/14 13:31:54;;;;;;;;;;;;;;;;;;;;;
2022/07/14 13:37:24;;;;;;;0.80;0.60;;;26.20;74.30;;;;;;6188338;23;20329;-93
2022/07/14 13:40:34;;;;;;;;;;;;;;;;;;;;;
2022/07/14 13:43:40;;;;;;;2.55;0.68;;;26.20;74.50;;;;;;6187047;23;20091;-92
2022/07/14 13:46:27;;;;;;;1.02;0.90;;;26.20;74.70;;;;;;6186237;23;20356;-93
2022/07/14 13:49:21;;;;;;;1.95;0.68;;;26.20;74.80;;;;;;6185195;23;20001;-93
2022/07/14 13:52:10;;;;;;;1.57;0.63;;;26.20;74.80;;;;;;6185918;23;20075;-93
2022/07/14 13:55:05;;;;;;;3.40;0.90;;;26.30;74.90;;;;;;6067814;23;20274;-94
2022/07/14 14:01:13;;;;;;;1.10;0.80;;;26.30;74.80;;;;;;6068118;23;20013;-93
2022/07/14 14:03:40;;;;;;;3.55;0.90;;;26.40;74.90;;;;;;6044371;23;20368;-92
2022/07/14 14:06:11;;;;;;;1.02;0.57;;;26.40;75.00;;;;;;6125122;23;20340;-94
2022/07/14 14:08:43;;;;;;;1.38;0.82;;;26.40;75.10;;;;;;6186167;23;20499;-92
2022/07/14 14:11:10;;;;;;;0.93;0.70;;;26.40;75.20;;;;;;6186529;23;20088;-92
2022/07/14 14:13:41;;;;;;;2.15;0.98;;;26.40;75.20;;;;;;6185754;23;20001;-92
2022/07/14 14:16:28;;;;;;;1.83;0.80;;;26.40;75.30;;;;;;6186731;23;20005;-93
2022/07/14 14:18:54;;;;;;;0.98;0.80;;;26.40;75.50;;;;;;6184952;23;20001;-92
2022/07/14 14:21:24;;;;;;;3.40;0.80;;;26.40;75.50;;;;;;6185749;23;20100;-92
2022/07/14 14:23:50;;;;;;;2.22;0.80;;;26.40;75.50;;;;;;6185676;23;20453;-91
2022/07/14 14:26:16;;;;;;;2.92;0.93;;;26.40;75.60;;;;;;6186131;23;20004;-91
2022/07/14 14:28:44;;;;;;;1.15;0.60;;;26.50;75.70;;;;;;6161400;23;20482;-93
2022/07/14 14:31:11;;;;;;;0.90;0.70;;;26.50;75.70;;;;;;6185473;23;20305;-92
2022/07/14 14:33:45;;;;;;;1.08;0.80;;;26.50;75.70;;;;;;6185665;23;20005;-93
2022/07/14 14:36:11;;;;;;;4.00;0.77;;;26.50;75.80;;;;;;6185004;23;20376;-94
2022/07/14 14:38:55;;;;;;;1.17;0.70;;;26.50;75.80;;;;;;6185914;23;20005;-92
2022/07/14 14:42:07;;;;;;;1.17;0.90;;;26.60;75.90;;;;;;6186152;23;20012;-92
2022/07/14 14:44:40;;;;;;;3.78;0.80;;;26.60;75.90;;;;;;6150831;23;20147;-93
2022/07/14 14:47:09;;;;;;;3.05;0.85;;;26.60;76.00;;;;;;6185934;23;20005;-92
2022/07/14 14:49:37;;;;;;;1.33;0.70;;;26.60;76.10;;;;;;6186170;23;20005;-92
2022/07/14 14:52:32;;;;;;;2.85;0.80;;;26.60;76.20;;;;;;6185746;23;20009;-93
2022/07/14 14:54:58;;;;;;;2.53;0.85;;;26.60;76.20;;;;;;6185531;23;20009;-91
2022/07/14 14:57:25;;;;;;;1.00;0.70;;;26.60;76.30;;;;;;6185869;23;20092;-91
2022/07/14 14:59:51;;;;;;;2.63;0.75;;;26.60;76.40;;;;;;6185500;23;20100;-92
2022/07/14 15:02:22;;;;;;;1.52;0.93;;;26.50;76.40;;;;;;6184724;23;20037;-93
2022/07/14 15:04:47;;;;;;;1.88;1.00;;;26.50;76.50;;;;;;6184967;23;20012;-93
2022/07/14 15:07:23;;;;;;;2.53;0.90;;;26.50;76.60;;;;;;6185653;23;20063;-93